Time;durP1;ratioP1;P1;durP2;ratioP2;P2;SDS_P1;SDS_P2;PMS_P1;PMS_P2;Temp;Humidity;BMP_temperature;BMP_pressure;BME280_temperature;BME280_humidity;BME280_pressure;Samples;Min_cycle;Max_cycle;Signal;HPM_P1;HPM_P2
2023/09/24 00:01:13;;;;;;;6.18;1.85;;;;;;;-146.27;77.62;82583.06;5030229;28;20036;-72
2023/09/24 00:03:39;;;;;;;3.97;1.77;;;;;;;-146.27;77.34;82560.97;5026679;28;20393;-71
2023/09/24 00:06:06;;;;;;;10.60;1.25;;;;;;;-146.27;77.31;82571.00;5019266;28;20033;-72
2023/09/24 00:08:32;;;;;;;7.68;1.65;;;;;;;-146.27;77.18;82601.16;5015035;28;20029;-72
2023/09/24 00:10:58;;;;;;;5.60;1.65;;;;;;;-146.27;77.40;82589.09;5030412;28;20057;-71
2023/09/24 00:13:23;;;;;;;10.07;1.63;;;;;;;-146.27;77.50;82585.06;5023176;28;20174;-71
2023/09/24 00:15:52;;;;;;;4.45;1.65;;;;;;;-146.27;77.15;82552.94;5025834;28;20033;-71
2023/09/24 00:18:19;;;;;;;7.10;2.70;;;;;;;-146.27;76.72;82597.13;5022803;28;20104;-71
2023/09/24 00:20:45;;;;;;;4.75;1.23;;;;;;;-146.27;76.68;82605.16;5025266;28;20045;-71
2023/09/24 00:23:11;;;;;;;7.13;1.42;;;;;;;-146.27;77.65;82569.00;5016503;28;20033;-71
2023/09/24 00:25:39;;;;;;;6.97;1.65;;;;;;;-146.27;76.93;82615.22;5013319;28;20037;-71
2023/09/24 00:28:05;;;;;;;5.40;1.67;;;;;;;-146.27;77.08;82583.06;5025644;28;20029;-71
2023/09/24 00:30:34;;;;;;;6.35;1.70;;;;;;;-146.27;77.40;82637.31;5025822;28;20039;-72
2023/09/24 00:33:00;;;;;;;6.38;1.98;;;;;;;-146.27;77.82;82733.72;5028094;28;20482;-72
2023/09/24 00:35:26;;;;;;;8.15;1.80;;;;;;;-146.27;78.31;82661.41;5020265;28;20053;-71
2023/09/24 00:37:51;;;;;;;7.90;1.75;;;;;;;-146.27;78.19;82651.38;5019348;28;20084;-71
2023/09/24 00:40:18;;;;;;;6.78;1.65;;;;;;;-146.27;78.85;82649.34;5011329;28;20397;-71
2023/09/24 00:42:45;;;;;;;4.05;1.48;;;;;;;-146.27;78.37;82617.22;5025294;28;20055;-71
2023/09/24 00:45:11;;;;;;;5.90;1.80;;;;;;;-146.27;78.81;82683.50;5016700;28;20036;-71
2023/09/24 00:47:43;;;;;;;7.88;1.98;;;;;;;-146.27;78.79;82723.69;5027929;28;20550;-71
2023/09/24 00:50:12;;;;;;;5.60;2.17;;;;;;;-146.27;78.36;82707.63;5018313;28;20040;-70
2023/09/24 00:52:38;;;;;;;6.45;1.73;;;;;;;-146.27;78.15;82665.44;5030448;28;20104;-72
2023/09/24 00:55:08;;;;;;;7.07;2.00;;;;;;;-146.27;78.38;82709.63;5023358;28;20018;-70
2023/09/24 00:57:34;;;;;;;6.18;1.63;;;;;;;-146.27;79.03;82725.69;5019236;28;20128;-72
2023/09/24 01:00:05;;;;;;;8.23;1.50;;;;;;;-146.27;78.27;82699.59;5019954;28;20033;-69
2023/09/24 01:02:33;;;;;;;6.30;1.83;;;;;;;-146.27;78.95;82769.91;5018575;28;20090;-70
2023/09/24 01:05:00;;;;;;;5.90;1.50;;;;;;;-146.27;78.23;82677.47;5024671;28;20033;-70
2023/09/24 01:07:26;;;;;;;7.13;1.90;;;;;;;-146.27;78.57;82719.66;5023176;28;20456;-71
2023/09/24 01:09:52;;;;;;;8.50;1.98;;;;;;;-146.27;78.76;82653.38;5013742;28;20033;-71
2023/09/24 01:12:29;;;;;;;4.55;1.33;;;;;;;-146.27;79.39;82665.44;5018091;28;20510;-71
2023/09/24 01:14:57;;;;;;;4.03;1.60;;;;;;;-146.27;79.56;82749.81;5016417;28;20536;-72
2023/09/24 01:17:25;;;;;;;2.33;1.27;;;;;;;-146.27;79.45;82785.97;5028477;28;20112;-70
2023/09/24 01:19:55;;;;;;;14.20;2.08;;;;;;;-146.27;79.11;82737.75;5022759;28;20090;-69
2023/09/24 01:22:21;;;;;;;7.20;1.80;;;;;;;-146.27;78.95;82745.78;5024901;28;21054;-72
2023/09/24 01:24:47;;;;;;;6.72;1.90;;;;;;;-146.27;78.43;82749.81;5013976;28;20071;-71
2023/09/24 01:27:13;;;;;;;5.43;1.88;;;;;;;-146.27;78.60;82765.88;5024310;28;20034;-71
2023/09/24 01:29:39;;;;;;;10.55;3.45;;;;;;;-146.27;79.04;82737.75;5016222;28;20022;-71
2023/09/24 01:32:06;;;;;;;6.72;1.73;;;;;;;-146.27;79.05;82761.84;5024530;28;20034;-71
2023/09/24 01:34:34;;;;;;;5.47;1.50;;;;;;;-146.27;78.83;82761.84;5012333;28;20053;-71
2023/09/24 01:37:08;;;;;;;6.53;1.80;;;;;;;-146.27;78.67;82773.91;5023185;28;20083;-70
2023/09/24 01:39:35;;;;;;;13.00;2.15;;;;;;;-146.27;78.41;82751.81;5013579;28;20052;-71
2023/09/24 01:42:00;;;;;;;5.20;1.23;;;;;;;-146.27;78.64;82765.88;5021356;28;20034;-71
2023/09/24 01:44:26;;;;;;;8.77;2.10;;;;;;;-146.27;78.80;82757.84;5025925;28;20022;-71
2023/09/24 01:46:51;;;;;;;4.43;1.67;;;;;;;-146.27;78.90;82741.78;5014183;28;20494;-71
2023/09/24 01:49:17;;;;;;;5.55;1.50;;;;;;;-146.27;79.05;82767.88;5027458;28;20049;-69
2023/09/24 01:51:44;;;;;;;2.95;1.80;;;;;;;-146.27;79.04;82767.88;5021664;28;20492;-68
2023/09/24 01:54:10;;;;;;;6.45;1.70;;;;;;;-146.27;79.43;82761.84;5016491;28;20025;-69
2023/09/24 01:56:36;;;;;;;6.65;1.60;;;;;;;-146.27;79.10;82769.91;5028232;28;20432;-69
2023/09/24 01:59:03;;;;;;;6.05;2.30;;;;;;;-146.27;79.06;82745.78;5022014;28;20027;-70
2023/09/24 02:01:29;;;;;;;7.30;2.08;;;;;;;-146.27;79.33;82741.78;5030397;28;20100;-71
2023/09/24 02:03:59;;;;;;;5.35;2.28;;;;;;;-146.27;79.07;82757.84;5032120;28;20565;-70
2023/09/24 02:06:25;;;;;;;7.15;1.70;;;;;;;-146.27;78.80;82733.72;5024658;28;20030;-70
2023/09/24 02:08:50;;;;;;;4.82;1.45;;;;;;;-146.27;78.63;82763.88;5014361;28;20398;-70
2023/09/24 02:11:16;;;;;;;5.50;1.48;;;;;;;-146.27;78.78;82769.91;5013260;28;20022;-71
2023/09/24 02:13:42;;;;;;;7.10;1.70;;;;;;;-146.27;78.35;82737.75;5013805;28;20626;-71
2023/09/24 02:16:07;;;;;;;7.85;1.85;;;;;;;-146.27;78.16;82755.84;5013837;28;20026;-72
2023/09/24 02:18:33;;;;;;;5.88;1.80;;;;;;;-146.27;78.40;82725.69;5025632;28;20477;-71
2023/09/24 02:20:59;;;;;;;3.95;1.67;;;;;;;-146.27;78.74;82773.91;5026666;28;20047;-71
2023/09/24 02:23:25;;;;;;;6.40;1.83;;;;;;;-146.27;78.46;82765.88;5028382;28;20488;-70
2023/09/24 02:25:51;;;;;;;6.50;1.65;;;;;;;-146.27;78.41;82773.91;5026392;28;20512;-71
2023/09/24 02:28:18;;;;;;;3.47;1.40;;;;;;;-146.27;78.67;82769.91;5013336;28;20049;-72
2023/09/24 02:30:43;;;;;;;5.43;1.77;;;;;;;-146.27;78.58;82747.78;5027136;28;20033;-71
2023/09/24 02:33:09;;;;;;;9.98;1.70;;;;;;;-146.27;79.62;82794.00;5031170;28;20021;-71
2023/09/24 02:35:35;;;;;;;3.05;1.67;;;;;;;-146.27;79.28;82753.81;5024378;28;20030;-71
2023/09/24 02:38:01;;;;;;;8.18;1.90;;;;;;;-146.27;78.85;82769.91;5030827;28;20660;-70
2023/09/24 02:40:27;;;;;;;5.65;2.00;;;;;;;-146.27;78.71;82763.88;5020888;28;20025;-70
2023/09/24 02:42:55;;;;;;;3.63;1.17;;;;;;;-146.27;78.74;82789.97;5029538;28;20033;-70
2023/09/24 02:45:20;;;;;;;9.55;1.75;;;;;;;-146.27;78.76;82777.94;5024493;28;20018;-71
2023/09/24 02:47:50;;;;;;;7.18;1.67;;;;;;;-146.27;78.16;82767.88;5021490;28;20035;-70
2023/09/24 02:50:17;;;;;;;9.75;1.90;;;;;;;-146.27;78.40;82773.91;5020044;28;20021;-71
2023/09/24 02:52:44;;;;;;;5.32;1.77;;;;;;;-146.27;77.86;82779.94;5023962;28;20086;-69
2023/09/24 02:55:13;;;;;;;8.18;1.70;;;;;;;-146.27;78.21;82800.03;5030158;28;20026;-70
2023/09/24 02:57:40;;;;;;;6.00;1.60;;;;;;;-146.27;77.80;82731.72;5023438;28;20022;-70
2023/09/24 03:00:44;;;;;;;6.68;1.65;;;;;;;-146.27;77.66;82743.78;5022852;28;20033;-69
2023/09/24 03:03:09;;;;;;;6.35;1.63;;;;;;;-146.27;77.68;82763.88;5025853;28;20042;-70
2023/09/24 03:05:35;;;;;;;4.10;1.35;;;;;;;-146.27;77.48;82783.97;5026341;28;20038;-70
2023/09/24 03:08:02;;;;;;;8.45;1.90;;;;;;;-146.27;78.03;82769.91;5018879;28;20034;-69
2023/09/24 03:10:32;;;;;;;3.90;1.50;;;;;;;-146.27;77.88;82725.69;5030532;28;20025;-71
2023/09/24 03:12:59;;;;;;;5.57;1.75;;;;;;;-146.27;77.74;82785.97;5021954;28;20088;-69
2023/09/24 03:15:25;;;;;;;7.88;1.85;;;;;;;-146.27;77.91;82753.81;5022190;28;20036;-69
2023/09/24 03:17:51;;;;;;;4.57;1.52;;;;;;;-146.27;77.71;82798.03;5025334;28;20112;-70
2023/09/24 03:20:19;;;;;;;5.85;1.70;;;;;;;-146.27;77.53;82779.94;5024343;28;20029;-71
2023/09/24 03:22:48;;;;;;;4.70;1.50;;;;;;;-146.27;77.51;82810.06;5029939;28;20068;-71
2023/09/24 03:25:18;;;;;;;7.32;1.73;;;;;;;-146.27;78.03;82806.06;5030505;28;20584;-71
2023/09/24 03:27:47;;;;;;;6.57;1.58;;;;;;;-146.27;78.21;82810.06;5030793;28;20040;-71
2023/09/24 03:30:17;;;;;;;5.47;2.05;;;;;;;-146.27;78.21;82787.97;5028473;28;20044;-71
2023/09/24 03:32:47;;;;;;;11.77;1.40;;;;;;;-146.27;78.18;82830.16;5024842;28;20087;-71
2023/09/24 03:35:14;;;;;;;4.05;1.52;;;;;;;-146.27;77.80;82796.00;5014588;28;20113;-73
2023/09/24 03:37:43;;;;;;;5.75;1.70;;;;;;;-146.27;77.97;82779.94;5016515;28;20037;-71
2023/09/24 03:40:11;;;;;;;4.95;1.63;;;;;;;-146.27;78.45;82834.19;5015400;28;20022;-71
2023/09/24 03:42:38;;;;;;;6.28;1.40;;;;;;;-146.27;78.15;82812.09;5018028;28;20107;-72
2023/09/24 03:45:07;;;;;;;10.23;1.85;;;;;;;-146.27;78.16;82769.91;5021359;28;20021;-72
2023/09/24 03:47:32;;;;;;;6.78;2.10;;;;;;;-146.27;78.06;82802.03;5018589;28;20029;-72
2023/09/24 03:49:58;;;;;;;9.20;2.28;;;;;;;-146.27;78.03;82808.06;5028262;28;20021;-72
2023/09/24 03:52:23;;;;;;;11.43;2.75;;;;;;;-146.27;78.06;82771.91;5015227;28;20035;-71
2023/09/24 03:54:49;;;;;;;3.63;2.03;;;;;;;-146.27;77.86;82828.16;5019271;28;20029;-71
2023/09/24 03:57:14;;;;;;;8.90;2.53;;;;;;;-146.27;78.35;82812.09;5016722;28;20057;-71
2023/09/24 03:59:40;;;;;;;5.22;2.53;;;;;;;-146.27;78.01;82794.00;5015495;28;20018;-72
2023/09/24 04:02:07;;;;;;;8.93;2.08;;;;;;;-146.27;78.41;82800.03;5024930;28;20122;-72
2023/09/24 04:04:34;;;;;;;5.47;2.30;;;;;;;-146.27;78.56;82830.16;5029727;28;20025;-71
2023/09/24 04:07:01;;;;;;;8.30;2.65;;;;;;;-146.27;78.68;82789.97;5024351;28;20037;-71
2023/09/24 04:09:26;;;;;;;3.80;2.47;;;;;;;-146.27;78.69;82759.84;5029634;28;20108;-71
2023/09/24 04:11:51;;;;;;;7.40;2.70;;;;;;;-146.27;78.69;82785.97;5024185;28;20109;-71
2023/09/24 04:14:17;;;;;;;9.05;3.15;;;;;;;-146.27;78.87;82783.97;5023591;28;20037;-71
2023/09/24 04:16:43;;;;;;;6.78;3.17;;;;;;;-146.27;78.84;82794.00;5025267;28;20064;-71
2023/09/24 04:19:09;;;;;;;8.55;3.30;;;;;;;-146.27;79.21;82773.91;5028899;28;20029;-71
2023/09/24 04:21:34;;;;;;;9.63;3.47;;;;;;;-146.27;79.25;82806.06;5018252;28;20394;-71
2023/09/24 04:24:00;;;;;;;5.68;3.22;;;;;;;-146.27;79.65;82826.16;5019835;28;20021;-71
2023/09/24 04:26:25;;;;;;;9.30;3.55;;;;;;;-146.27;79.44;82814.09;5017034;28;20062;-71
2023/09/24 04:28:53;;;;;;;11.52;4.10;;;;;;;-146.27;79.44;82753.81;5028888;28;20080;-71
2023/09/24 04:31:19;;;;;;;10.75;3.60;;;;;;;-146.27;79.58;82798.03;5019595;28;20060;-70
2023/09/24 04:33:45;;;;;;;5.70;3.00;;;;;;;-146.27;79.31;82787.97;5026386;28;20450;-71
2023/09/24 04:36:11;;;;;;;10.50;3.25;;;;;;;-146.27;79.49;82820.13;5031076;28;20021;-71
2023/09/24 04:38:37;;;;;;;8.75;3.20;;;;;;;-146.27;79.25;82757.84;5019992;28;20034;-71
2023/09/24 04:41:03;;;;;;;11.70;3.45;;;;;;;-146.27;79.31;82787.97;5017047;28;20061;-71
2023/09/24 04:43:29;;;;;;;7.45;3.13;;;;;;;-146.27;79.66;82779.94;5011139;28;20030;-71
2023/09/24 04:45:55;;;;;;;8.15;3.05;;;;;;;-146.27;79.69;82787.97;5022690;28;20044;-71
2023/09/24 04:48:20;;;;;;;8.82;3.15;;;;;;;-146.27;79.39;82765.88;5021464;28;20080;-71
2023/09/24 04:50:45;;;;;;;9.02;3.75;;;;;;;-146.27;79.50;82769.91;5017710;28;20032;-71
2023/09/24 04:53:11;;;;;;;11.50;3.35;;;;;;;-146.27;79.60;82789.97;5018362;28;20116;-71
2023/09/24 04:55:36;;;;;;;10.80;4.20;;;;;;;-146.27;79.81;82806.06;5030318;28;20071;-72
2023/09/24 04:58:02;;;;;;;11.65;3.50;;;;;;;-146.27;80.01;82818.13;5028648;28;20029;-72
2023/09/24 05:00:27;;;;;;;15.75;5.30;;;;;;;-146.27;80.02;82789.97;5027661;28;20037;-72
2023/09/24 05:02:53;;;;;;;4.68;3.33;;;;;;;-146.27;80.17;82824.13;5009364;28;20030;-72
2023/09/24 05:05:19;;;;;;;11.68;3.85;;;;;;;-146.27;80.26;82842.22;5011546;28;20030;-72
2023/09/24 05:07:44;;;;;;;10.82;3.85;;;;;;;-146.27;80.62;82856.28;5027103;28;20021;-70
2023/09/24 05:10:10;;;;;;;11.25;4.10;;;;;;;-146.27;80.52;82824.13;5022484;28;20029;-70
2023/09/24 05:12:35;;;;;;;13.30;4.20;;;;;;;-146.27;80.54;82810.06;5022657;28;20029;-70
2023/09/24 05:15:01;;;;;;;11.55;4.05;;;;;;;-146.27;80.84;82808.06;5022001;28;20049;-72
2023/09/24 05:17:27;;;;;;;8.82;3.72;;;;;;;-146.27;80.63;82836.19;5012976;28;20030;-72
2023/09/24 05:19:54;;;;;;;13.10;3.95;;;;;;;-146.27;80.12;82822.13;5013495;28;20472;-71
2023/09/24 05:22:20;;;;;;;10.40;4.18;;;;;;;-146.27;80.83;82838.19;5029606;28;20477;-72
2023/09/24 05:24:45;;;;;;;11.73;3.50;;;;;;;-146.27;80.31;82838.19;5020540;28;20072;-71
2023/09/24 05:27:10;;;;;;;11.02;3.60;;;;;;;-146.27;80.33;82886.41;5023241;28;20375;-71
2023/09/24 05:29:36;;;;;;;11.55;3.72;;;;;;;-146.27;80.15;82842.22;5010550;28;20028;-70
2023/09/24 05:32:02;;;;;;;13.02;3.92;;;;;;;-146.27;80.26;82888.44;5026455;28;20099;-72
2023/09/24 05:34:28;;;;;;;9.30;3.53;;;;;;;-146.27;80.46;82866.31;5020848;28;20033;-72
2023/09/24 05:36:53;;;;;;;8.77;4.00;;;;;;;-146.27;80.44;82882.41;5017339;28;20030;-72
2023/09/24 05:39:19;;;;;;;15.77;4.00;;;;;;;-146.27;80.40;82872.34;5017664;28;20065;-72
2023/09/24 05:41:44;;;;;;;13.02;3.55;;;;;;;-146.27;80.62;82872.34;5027416;28;20087;-72
2023/09/24 05:44:10;;;;;;;14.77;4.75;;;;;;;-146.27;80.50;82884.41;5033243;28;20104;-72
2023/09/24 05:46:35;;;;;;;10.57;4.03;;;;;;;-146.27;80.34;82872.34;5025564;28;20109;-71
2023/09/24 05:49:00;;;;;;;12.40;4.00;;;;;;;-146.27;80.63;82892.44;5026429;28;20029;-72
2023/09/24 05:51:26;;;;;;;11.70;4.13;;;;;;;-146.27;80.48;82874.38;5023765;28;20060;-71
2023/09/24 05:53:52;;;;;;;13.52;5.78;;;;;;;-146.27;80.37;82882.41;5023840;28;20030;-71
2023/09/24 05:56:18;;;;;;;14.20;4.25;;;;;;;-146.27;80.62;82864.31;5033096;28;20037;-71
2023/09/24 05:58:43;;;;;;;10.07;4.57;;;;;;;-146.27;80.57;82890.44;5024828;28;20176;-72
2023/09/24 06:01:14;;;;;;;14.57;5.28;;;;;;;-146.27;80.34;82860.31;5018012;28;20544;-71
2023/09/24 06:03:39;;;;;;;7.05;4.47;;;;;;;-146.27;80.40;82894.47;5023218;28;20033;-70
2023/09/24 06:06:09;;;;;;;11.23;4.00;;;;;;;-146.27;80.55;82870.34;5013781;28;20037;-71
2023/09/24 06:08:37;;;;;;;12.20;5.53;;;;;;;-146.27;80.49;82852.25;5024431;28;20080;-70
2023/09/24 06:11:02;;;;;;;9.82;4.78;;;;;;;-146.27;80.24;82898.47;5033415;28;20037;-70
2023/09/24 06:13:28;;;;;;;9.45;4.15;;;;;;;-146.27;80.34;82864.31;5025721;28;20061;-70
2023/09/24 06:16:00;;;;;;;7.20;3.75;;;;;;;-146.27;79.99;82838.19;5026067;28;20029;-69
2023/09/24 06:18:26;;;;;;;10.70;4.30;;;;;;;-146.27;80.04;82854.28;5024175;28;20503;-70
2023/09/24 06:20:51;;;;;;;12.65;4.57;;;;;;;-146.27;79.81;82844.22;5031536;28;20128;-70
2023/09/24 06:23:17;;;;;;;15.15;5.13;;;;;;;-146.27;80.05;82878.38;5018424;28;20025;-70
2023/09/24 06:25:43;;;;;;;8.00;4.53;;;;;;;-146.27;79.74;82850.25;5015712;28;20049;-70
2023/09/24 06:28:11;;;;;;;12.45;5.30;;;;;;;-146.27;80.21;82866.31;5014492;28;20034;-70
2023/09/24 06:30:38;;;;;;;10.40;4.68;;;;;;;-146.27;80.21;82912.53;5028106;28;20095;-72
2023/09/24 06:33:04;;;;;;;9.32;4.53;;;;;;;-146.27;80.16;82858.28;5013434;28;20494;-72
2023/09/24 06:35:33;;;;;;;15.15;5.65;;;;;;;-146.27;79.91;82834.19;5014296;28;20025;-70
2023/09/24 06:37:59;;;;;;;12.90;5.00;;;;;;;-146.27;79.75;82814.09;5013194;28;20037;-70
2023/09/24 06:40:24;;;;;;;14.45;5.68;;;;;;;-146.27;79.66;82806.06;5024221;28;20029;-71
2023/09/24 06:42:50;;;;;;;12.27;4.15;;;;;;;-146.27;79.76;82878.38;5031219;28;20083;-71
2023/09/24 06:45:15;;;;;;;13.07;4.45;;;;;;;-146.27;79.44;82810.06;5019541;28;20022;-71
2023/09/24 06:47:41;;;;;;;10.02;4.75;;;;;;;-146.27;79.37;82808.06;5025761;28;20097;-70
2023/09/24 06:50:07;;;;;;;9.70;4.57;;;;;;;-146.27;79.22;82806.06;5020223;28;20065;-71
2023/09/24 06:52:33;;;;;;;8.65;5.10;;;;;;;-146.27;78.96;82771.91;5016808;28;20026;-71
2023/09/24 06:55:01;;;;;;;11.48;5.72;;;;;;;-146.27;78.66;82789.97;5023289;28;20526;-70
2023/09/24 06:57:27;;;;;;;12.43;5.28;;;;;;;-146.27;78.86;82794.00;5016878;28;20033;-70
2023/09/24 06:59:52;;;;;;;17.58;5.05;;;;;;;-146.27;78.69;82757.84;5023642;28;20036;-71
2023/09/24 07:02:17;;;;;;;13.63;5.38;;;;;;;-146.27;78.59;82798.03;5020225;28;20490;-70
2023/09/24 07:04:43;;;;;;;11.65;5.13;;;;;;;-146.27;78.27;82779.94;5021614;28;20025;-70
2023/09/24 07:07:09;;;;;;;13.35;5.15;;;;;;;-146.27;78.29;82783.97;5014385;28;20026;-70
2023/09/24 07:09:34;;;;;;;11.63;4.90;;;;;;;-146.27;78.12;82743.78;5024886;28;20037;-69
2023/09/24 07:12:01;;;;;;;11.13;4.68;;;;;;;-146.27;78.11;82687.53;5031996;28;20036;-72
2023/09/24 07:14:26;;;;;;;6.88;3.95;;;;;;;-146.27;77.93;82689.53;5013271;28;20042;-71
2023/09/24 07:16:52;;;;;;;10.35;4.00;;;;;;;-146.27;77.53;82689.53;5023442;28;20090;-73
2023/09/24 07:19:18;;;;;;;10.85;4.07;;;;;;;-146.27;77.20;82705.59;5019701;28;20025;-71
2023/09/24 07:21:45;;;;;;;8.05;3.88;;;;;;;-146.27;77.07;82669.44;5022020;28;20456;-70
2023/09/24 07:24:11;;;;;;;7.75;4.00;;;;;;;-146.27;76.93;82625.25;5020159;28;20029;-73
2023/09/24 07:26:36;;;;;;;6.80;3.25;;;;;;;-146.27;76.71;82659.41;5020102;28;20401;-69
2023/09/24 07:29:02;;;;;;;6.90;3.42;;;;;;;-146.27;76.52;82617.22;5018476;28;20122;-69
2023/09/24 07:31:28;;;;;;;9.35;3.83;;;;;;;-146.27;76.15;82615.22;5014084;28;20030;-68
2023/09/24 07:33:54;;;;;;;10.88;3.78;;;;;;;-146.27;75.98;82593.09;5025897;28;20029;-68
2023/09/24 07:36:21;;;;;;;6.95;3.45;;;;;;;-146.27;75.73;82629.28;5015243;28;20065;-68
2023/09/24 07:38:47;;;;;;;11.70;3.88;;;;;;;-146.27;75.88;82593.09;5017873;28;20100;-70
2023/09/24 07:41:12;;;;;;;9.10;3.22;;;;;;;-146.27;75.87;82562.97;5028180;28;20056;-68
2023/09/24 07:43:40;;;;;;;7.40;3.20;;;;;;;-146.27;74.96;82573.00;5019583;28;20032;-68
2023/09/24 07:46:14;;;;;;;4.97;3.10;;;;;;;-146.27;75.39;82532.84;5023287;28;20017;-67
2023/09/24 07:48:41;;;;;;;5.25;2.63;;;;;;;-146.27;74.46;82528.81;5017307;28;20033;-69
2023/09/24 07:51:07;;;;;;;12.52;3.25;;;;;;;-146.27;75.10;82500.69;5014762;28;20029;-69
2023/09/24 07:53:32;;;;;;;6.05;3.30;;;;;;;-146.27;74.37;82490.66;5016531;28;20040;-71
2023/09/24 07:56:07;;;;;;;5.07;2.17;;;;;;;-146.27;73.82;82446.47;5018943;28;20131;-69
2023/09/24 07:58:33;;;;;;;5.95;2.88;;;;;;;-146.27;73.29;82464.53;5013410;28;20440;-69
2023/09/24 08:01:07;;;;;;;8.98;3.00;;;;;;;-146.27;72.48;82448.47;5024737;28;20122;-70
2023/09/24 08:03:33;;;;;;;5.07;2.55;;;;;;;-146.27;71.79;82392.22;5030861;28;20028;-69
2023/09/24 08:05:59;;;;;;;9.20;2.80;;;;;;;-146.27;71.62;82432.41;5029954;28;20052;-68
2023/09/24 08:08:28;;;;;;;7.05;2.33;;;;;;;-146.27;71.44;82346.03;5012971;28;20037;-67
2023/09/24 08:10:54;;;;;;;6.35;2.50;;;;;;;-146.27;70.92;82335.97;5024534;28;20037;-67
2023/09/24 08:13:21;;;;;;;10.50;2.85;;;;;;;-146.27;70.47;82303.84;5023366;28;20143;-67
2023/09/24 08:15:47;;;;;;;7.53;2.40;;;;;;;-146.27;70.25;82364.09;5022004;28;20030;-69
2023/09/24 08:18:13;;;;;;;5.30;2.40;;;;;;;-146.27;69.93;82271.69;5011004;28;20033;-67
2023/09/24 08:20:39;;;;;;;9.65;2.67;;;;;;;-146.27;69.92;82255.63;5009446;28;20076;-70
2023/09/24 08:23:05;;;;;;;5.13;2.05;;;;;;;-146.27;70.04;82203.41;5026604;28;20052;-69
2023/09/24 08:25:31;;;;;;;3.47;1.83;;;;;;;-146.27;69.49;82223.47;5028253;28;20025;-69
2023/09/24 08:27:57;;;;;;;7.32;2.05;;;;;;;-146.27;68.77;82171.25;5027849;28;20029;-70
2023/09/24 08:30:24;;;;;;;6.72;2.25;;;;;;;-146.27;68.05;82183.31;5015146;28;20064;-70
2023/09/24 08:32:49;;;;;;;6.72;2.17;;;;;;;-146.27;68.00;82117.03;5023554;28;20098;-69
2023/09/24 08:35:14;;;;;;;8.40;2.22;;;;;;;-146.27;67.89;82078.84;5010190;28;20034;-69
2023/09/24 08:37:40;;;;;;;8.13;2.03;;;;;;;-146.27;67.02;82058.78;5018607;28;20112;-69
2023/09/24 08:40:07;;;;;;;4.07;1.88;;;;;;;-146.27;66.92;82066.81;5025458;28;20401;-72
2023/09/24 08:42:32;;;;;;;9.55;3.47;;;;;;;-146.27;66.64;82066.81;5018944;28;20029;-69
2023/09/24 08:45:09;;;;;;;11.60;3.35;;;;;;;-146.27;65.27;82111.00;5030499;28;20017;-69
2023/09/24 08:47:38;;;;;;;3.10;2.08;;;;;;;-146.27;65.06;82058.78;5013101;28;20604;-68
2023/09/24 08:50:04;;;;;;;5.97;2.53;;;;;;;-146.27;65.04;81922.19;5020796;28;20026;-70
2023/09/24 08:52:38;;;;;;;4.95;1.60;;;;;;;-146.27;64.98;81920.19;5012718;28;20026;-70
2023/09/24 08:55:05;;;;;;;5.88;1.60;;;;;;;-146.27;63.63;81867.97;5018521;28;20036;-69
2023/09/24 08:57:34;;;;;;;9.43;1.65;;;;;;;-146.27;63.66;81825.78;5012214;28;20052;-70
2023/09/24 09:00:00;;;;;;;9.48;1.88;;;;;;;-146.27;62.69;81789.63;5016906;28;20075;-70
2023/09/24 09:02:26;;;;;;;5.53;1.70;;;;;;;-146.27;62.19;81753.47;5025201;28;20030;-70
2023/09/24 09:04:52;;;;;;;4.75;2.35;;;;;;;-146.27;62.41;81765.53;5024537;28;20053;-72
2023/09/24 09:07:18;;;;;;;5.75;1.80;;;;;;;-146.27;61.76;81661.09;5015779;28;20034;-70
2023/09/24 09:09:59;;;;;;;5.30;1.58;;;;;;;-146.27;60.89;81636.97;5017635;28;20064;-71
2023/09/24 09:12:28;;;;;;;6.78;1.90;;;;;;;-146.27;60.73;81645.00;5017295;28;20030;-71
2023/09/24 09:14:55;;;;;;;4.97;1.80;;;;;;;-146.27;61.12;81675.16;5012272;28;20520;-71
2023/09/24 09:17:23;;;;;;;4.18;1.50;;;;;;;-146.27;59.81;81669.13;5009998;28;20096;-68
2023/09/24 09:19:55;;;;;;;4.15;1.33;;;;;;;-146.27;60.36;81695.22;5015671;28;20022;-70
2023/09/24 09:22:23;;;;;;;2.97;1.75;;;;;;;-146.27;58.97;81693.22;5028777;28;20473;-70
2023/09/24 09:25:00;;;;;;;7.65;2.13;;;;;;;-146.27;59.62;81596.81;5030056;28;20017;-70
2023/09/24 09:27:31;;;;;;;5.85;1.48;;;;;;;-146.27;58.85;81504.44;5028272;28;20401;-69
2023/09/24 09:30:17;;;;;;;8.10;2.03;;;;;;;-146.27;58.05;81568.69;5020329;28;20112;-70
2023/09/24 09:32:47;;;;;;;7.80;1.80;;;;;;;-146.27;58.41;81568.69;5021725;28;20028;-70
2023/09/24 09:35:15;;;;;;;3.53;1.40;;;;;;;-146.27;57.61;81576.72;5011451;28;20088;-69
2023/09/24 09:37:43;;;;;;;5.78;1.58;;;;;;;-146.27;56.53;81536.56;5024447;28;20382;-71
2023/09/24 09:40:09;;;;;;;4.80;1.60;;;;;;;-146.27;55.53;81534.56;5016320;28;20874;-69
2023/09/24 09:42:36;;;;;;;7.55;1.40;;;;;;;-146.27;56.87;81522.50;5032249;28;20104;-70
2023/09/24 09:45:09;;;;;;;4.00;1.52;;;;;;;-146.27;55.45;81418.06;5030416;28;20438;-69
2023/09/24 09:47:59;;;;;;;4.18;1.30;;;;;;;-146.27;54.23;81570.69;5030059;28;20039;-70
2023/09/24 09:50:25;;;;;;;6.57;2.10;;;;;;;-146.27;53.52;81375.91;5015431;28;20076;-69
2023/09/24 09:52:54;;;;;;;4.00;1.30;;;;;;;-146.27;54.46;81331.72;5021785;28;20044;-69
2023/09/24 09:55:20;;;;;;;3.20;1.40;;;;;;;-146.27;53.54;81395.97;5037357;28;20063;-69
2023/09/24 09:57:46;;;;;;;3.13;1.35;;;;;;;-146.27;52.17;81375.91;5026389;28;20042;-69
2023/09/24 10:00:16;;;;;;;5.32;1.40;;;;;;;-146.27;51.97;81377.91;5024019;28;20034;-69
2023/09/24 10:02:43;;;;;;;4.40;1.67;;;;;;;-146.27;52.28;81347.78;5026191;28;20044;-68
2023/09/24 10:05:13;;;;;;;5.47;1.48;;;;;;;-146.27;51.02;81245.34;5028091;28;20099;-69
2023/09/24 10:07:38;;;;;;;6.43;1.45;;;;;;;-146.27;50.83;81122.84;5045948;28;20025;-69
2023/09/24 10:10:34;;;;;;;7.13;1.48;;;;;;;-146.27;49.89;81144.94;5030687;28;20457;-68
2023/09/24 10:13:02;;;;;;;8.65;1.98;;;;;;;-146.27;50.64;81018.44;5020795;28;20450;-69
2023/09/24 10:15:30;;;;;;;3.65;1.50;;;;;;;-146.27;50.73;81126.88;5024122;28;20030;-68
2023/09/24 10:18:08;;;;;;;5.93;1.88;;;;;;;-146.27;49.55;81056.59;5026220;28;20057;-69
2023/09/24 10:20:48;;;;;;;2.47;1.00;;;;;;;-146.27;50.54;81050.56;5018053;28;20056;-69
2023/09/24 10:23:28;;;;;;;4.32;1.35;;;;;;;-146.27;49.32;81016.44;5017132;28;20090;-69
2023/09/24 10:25:56;;;;;;;4.53;1.60;;;;;;;-146.27;49.18;81002.38;5028758;28;20029;-69
2023/09/24 10:28:42;;;;;;;6.15;1.30;;;;;;;-146.27;48.66;80990.31;5025775;28;20022;-69
2023/09/24 10:31:09;;;;;;;2.63;1.25;;;;;;;-146.27;47.54;81080.69;5017788;28;20026;-69
2023/09/24 10:33:52;;;;;;;3.35;1.33;;;;;;;-146.27;47.12;81265.44;5020953;28;20024;-70
2023/09/24 10:36:30;;;;;;;4.80;1.38;;;;;;;-146.27;47.71;81249.38;5021302;28;20034;-69
2023/09/24 10:39:11;;;;;;;3.35;1.15;;;;;;;-146.27;48.21;81179.09;5029230;28;20033;-70
2023/09/24 10:42:08;;;;;;;6.25;1.30;;;;;;;-146.27;49.23;81213.22;5017215;28;20030;-69
2023/09/24 10:44:35;;;;;;;5.07;1.63;;;;;;;-146.27;48.22;81134.91;5015028;28;20033;-70
2023/09/24 10:47:30;;;;;;;4.25;1.50;;;;;;;-146.27;46.89;81042.53;5021180;28;20075;-69
2023/09/24 10:50:03;;;;;;;5.93;1.52;;;;;;;-146.27;46.48;80891.94;5028840;28;20065;-68
2023/09/24 10:52:29;;;;;;;4.80;1.48;;;;;;;-146.27;46.47;80861.81;5026083;28;20580;-70
2023/09/24 10:54:55;;;;;;;4.63;1.85;;;;;;;-146.27;46.86;80675.06;5016737;28;20350;-71
2023/09/24 10:57:25;;;;;;;3.55;1.40;;;;;;;-146.27;46.01;80865.81;5014871;28;20080;-70
2023/09/24 10:59:51;;;;;;;3.33;1.40;;;;;;;-146.27;45.14;80785.50;5020129;28;20033;-69
2023/09/24 11:02:17;;;;;;;3.92;1.30;;;;;;;-146.27;43.96;80815.63;5031964;28;20026;-70
2023/09/24 11:04:43;;;;;;;6.55;1.65;;;;;;;-146.27;44.53;80867.81;5020537;28;20018;-70
2023/09/24 11:07:09;;;;;;;4.63;1.38;;;;;;;-146.27;45.14;80903.97;5036627;28;20036;-71
2023/09/24 11:09:34;;;;;;;3.97;1.60;;;;;;;-146.27;44.74;80646.94;5027360;28;20101;-71
2023/09/24 11:12:01;;;;;;;6.65;1.52;;;;;;;-146.27;43.28;80498.38;5034501;28;20028;-71
2023/09/24 11:14:26;;;;;;;3.22;1.60;;;;;;;-146.27;42.44;80608.78;5031640;28;20409;-71
2023/09/24 11:16:53;;;;;;;6.55;1.52;;;;;;;-146.27;43.04;80667.03;5040467;28;20090;-69